Airport View

Enter AWOS ICAO identifier for current METAR.

ex. KFNL

KARV 290255Z AUTO 30007KT 10SM OVC043 11/08 A2976 RMK AO2 T01100075

29 Sep 2020 03:11

Frequency: 121.125

Phone: 715-356-2417

Other Area AWOS: KD25 - KEGV - KRHI - KLNL

TAF KRHI 282324Z 2900/2924 30006KT P6SM VCSH SCT030 BKN050 FM290400 29006KT P6SM SCT015 BKN025 FM290900 28006KT P6SM OVC006 FM291500 27007KT P6SM VCSH OVC010 FM291900 26007KT P6SM -SHRA OVC013